createdAt,value
2018-04-22T00:00:03.278Z,52.09
2018-04-22T00:02:29.081Z,51.97
2018-04-22T00:04:55.764Z,52.56
2018-04-22T00:07:21.604Z,52.19
2018-04-22T00:09:47.418Z,52.31
2018-04-22T00:12:13.216Z,52.08
2018-04-22T00:14:39.655Z,52.33
2018-04-22T00:17:05.452Z,52.09
2018-04-22T00:19:32.113Z,52.33
2018-04-22T00:21:57.918Z,51.82
2018-04-22T00:24:24.714Z,51.85
2018-04-22T00:26:50.521Z,52.11
2018-04-22T00:29:16.352Z,51.73
2018-04-22T00:31:42.156Z,51.79
2018-04-22T00:34:07.993Z,52.08
2018-04-22T00:36:33.796Z,52.12
2018-04-22T00:39:00.603Z,52.54
2018-04-22T00:41:27.457Z,51.73
2018-04-22T00:43:54.228Z,52.36
2018-04-22T00:46:20.057Z,51.95
2018-04-22T00:48:45.858Z,51.94
2018-04-22T00:51:11.726Z,51.91
2018-04-22T00:53:43.766Z,51.75
2018-04-22T00:56:09.581Z,51.90
2018-04-22T00:58:35.380Z,51.53
2018-04-22T01:01:01.185Z,51.80
2018-04-22T01:03:26.983Z,51.90
2018-04-22T01:05:52.825Z,51.94
2018-04-22T01:08:18.634Z,51.88
2018-04-22T01:10:44.441Z,52.08
2018-04-22T01:13:10.255Z,52.29
2018-04-22T01:15:36.072Z,52.03
2018-04-22T01:18:01.902Z,52.20
2018-04-22T01:20:27.768Z,52.04
2018-04-22T01:22:53.573Z,52.12
2018-04-22T01:25:19.416Z,51.80
2018-04-22T01:27:45.272Z,51.91
2018-04-22T01:30:11.077Z,51.61
2018-04-22T01:32:36.886Z,51.68
2018-04-22T01:35:02.692Z,51.73
2018-04-22T01:37:28.506Z,51.79
2018-04-22T01:39:54.337Z,51.75
2018-04-22T01:42:20.177Z,51.57
2018-04-22T01:44:45.982Z,51.87
2018-04-22T01:47:11.816Z,51.83
2018-04-22T01:49:37.660Z,51.68
2018-04-22T01:52:03.510Z,51.62
2018-04-22T01:54:29.321Z,51.48
2018-04-22T01:56:55.151Z,51.91
2018-04-22T01:59:20.959Z,51.67
2018-04-22T02:01:46.761Z,51.88
2018-04-22T02:04:12.673Z,51.91
2018-04-22T02:06:38.474Z,51.81
2018-04-22T02:09:04.296Z,51.81
2018-04-22T02:11:30.099Z,51.75
2018-04-22T02:13:55.985Z,51.86
2018-04-22T02:16:21.792Z,51.72
2018-04-22T02:18:47.632Z,51.52
2018-04-22T02:21:13.437Z,51.55
2018-04-22T02:23:39.244Z,51.59
2018-04-22T02:26:05.045Z,51.53
2018-04-22T02:28:30.849Z,51.75
2018-04-22T02:30:56.657Z,51.67
2018-04-22T02:33:22.466Z,51.56
2018-04-22T02:35:48.274Z,51.65
2018-04-22T02:38:14.084Z,51.98
2018-04-22T02:40:39.895Z,51.78
2018-04-22T02:43:05.729Z,51.82
2018-04-22T02:45:31.536Z,51.99
2018-04-22T02:47:57.376Z,51.88
2018-04-22T02:50:23.180Z,51.88
2018-04-22T02:52:48.984Z,51.54
2018-04-22T02:55:14.804Z,51.79
2018-04-22T02:57:40.617Z,52.26
2018-04-22T03:00:06.424Z,51.72
2018-04-22T03:02:32.228Z,51.56
2018-04-22T03:04:58.093Z,51.42
2018-04-22T03:07:23.896Z,52.47
2018-04-22T03:09:49.702Z,51.93
2018-04-22T03:12:15.509Z,51.52
2018-04-22T03:14:41.313Z,51.60
2018-04-22T03:17:07.127Z,51.42
2018-04-22T03:19:32.968Z,51.81
2018-04-22T03:21:58.795Z,51.63
2018-04-22T03:24:24.632Z,51.48
2018-04-22T03:26:50.433Z,51.52
2018-04-22T03:29:17.314Z,51.54
2018-04-22T03:31:43.149Z,51.37
2018-04-22T03:34:08.989Z,51.37
2018-04-22T03:36:34.794Z,51.40
2018-04-22T03:39:00.633Z,51.36
2018-04-22T03:41:26.473Z,51.35
2018-04-22T03:43:52.308Z,51.34
2018-04-22T03:46:18.140Z,51.48
2018-04-22T03:48:43.975Z,51.64
2018-04-22T03:51:09.793Z,51.18
2018-04-22T03:53:35.602Z,51.29
2018-04-22T03:56:01.445Z,51.22
2018-04-22T03:58:27.260Z,51.52
2018-04-22T04:00:53.060Z,51.42
2018-04-22T04:03:18.869Z,51.13
2018-04-22T04:05:44.706Z,51.10
2018-04-22T04:08:10.641Z,51.04
2018-04-22T04:10:36.457Z,51.12
2018-04-22T04:13:02.260Z,51.07
2018-04-22T04:15:28.093Z,50.85
2018-04-22T04:17:57.976Z,51.41
2018-04-22T04:20:30.096Z,51.23
2018-04-22T04:22:56.056Z,50.95
2018-04-22T04:25:39.027Z,51.10
2018-04-22T04:28:04.870Z,51.29
2018-04-22T04:30:30.677Z,50.88
2018-04-22T04:32:56.504Z,51.25
2018-04-22T04:35:22.336Z,51.25
2018-04-22T04:37:48.147Z,51.07
2018-04-22T04:40:13.976Z,51.16
2018-04-22T04:42:39.867Z,51.22
2018-04-22T04:45:05.682Z,51.05
2018-04-22T04:47:31.537Z,51.30
2018-04-22T04:49:57.396Z,51.47
2018-04-22T04:52:23.204Z,51.11
2018-04-22T04:54:49.024Z,51.41
2018-04-22T04:57:14.829Z,51.18
2018-04-22T04:59:40.648Z,50.75
2018-04-22T05:02:06.455Z,50.68
2018-04-22T05:04:32.312Z,50.71
2018-04-22T05:06:58.161Z,50.73
2018-04-22T05:09:23.969Z,50.68
2018-04-22T05:11:49.806Z,50.69
2018-04-22T05:14:15.616Z,50.64
2018-04-22T05:16:41.425Z,50.69
2018-04-22T05:19:07.225Z,50.60
2018-04-22T05:21:33.036Z,50.95
2018-04-22T05:23:58.844Z,50.60
2018-04-22T05:26:24.644Z,50.97
2018-04-22T05:28:50.481Z,50.66
2018-04-22T05:31:16.379Z,51.07
2018-04-22T05:33:42.172Z,50.66
2018-04-22T05:36:07.978Z,50.75
2018-04-22T05:38:33.780Z,50.51
2018-04-22T05:40:59.585Z,50.73
2018-04-22T05:43:25.395Z,50.42
2018-04-22T05:45:51.208Z,50.64
2018-04-22T05:48:17.066Z,50.75
2018-04-22T05:50:42.931Z,50.43
2018-04-22T05:53:08.772Z,50.45
2018-04-22T05:55:34.633Z,51.22
2018-04-22T05:58:00.439Z,50.82
2018-04-22T06:00:26.273Z,50.39
2018-04-22T06:02:52.077Z,50.48
2018-04-22T06:05:17.917Z,50.54
2018-04-22T06:07:43.834Z,50.56
2018-04-22T06:10:09.642Z,50.01
2018-04-22T06:12:35.472Z,50.10
2018-04-22T06:15:01.286Z,49.85
2018-04-22T06:17:27.121Z,50.71
2018-04-22T06:19:52.953Z,50.81
2018-04-22T06:22:18.785Z,50.26
2018-04-22T06:24:44.612Z,50.77
2018-04-22T06:27:10.447Z,50.96
2018-04-22T06:29:36.280Z,50.34
2018-04-22T06:32:02.085Z,51.47
2018-04-22T06:34:27.940Z,50.95
2018-04-22T06:36:53.815Z,50.96
2018-04-22T06:39:19.622Z,51.41
2018-04-22T06:41:45.473Z,51.31
2018-04-22T06:44:11.286Z,51.08
2018-04-22T06:46:37.097Z,49.79
2018-04-22T06:49:02.913Z,51.30
2018-04-22T06:51:28.756Z,51.18
2018-04-22T06:53:54.650Z,51.58
2018-04-22T06:56:20.457Z,51.03
2018-04-22T06:58:46.320Z,51.09
2018-04-22T07:01:12.116Z,51.10
2018-04-22T07:03:37.957Z,52.31
2018-04-22T07:06:03.773Z,52.16
2018-04-22T07:08:29.580Z,52.31
2018-04-22T07:10:55.791Z,52.54
2018-04-22T07:13:21.596Z,52.45
2018-04-22T07:15:47.440Z,52.37
2018-04-22T07:18:13.253Z,52.40
2018-04-22T07:20:39.058Z,52.64
2018-04-22T07:23:04.872Z,52.60
2018-04-22T07:25:31.485Z,52.63
2018-04-22T07:27:57.287Z,52.65
2018-04-22T07:30:23.088Z,52.79
2018-04-22T07:32:48.912Z,52.80
2018-04-22T07:35:14.780Z,52.79
2018-04-22T07:37:40.705Z,52.77
2018-04-22T07:40:06.566Z,52.91
2018-04-22T07:42:32.409Z,52.97
2018-04-22T07:44:58.229Z,52.98
2018-04-22T07:47:24.040Z,52.97
2018-04-22T07:49:49.877Z,53.12
2018-04-22T07:52:15.701Z,53.00
2018-04-22T07:54:41.508Z,53.04
2018-04-22T07:57:07.315Z,53.19
2018-04-22T07:59:33.120Z,53.20
2018-04-22T08:01:58.924Z,53.04
2018-04-22T08:04:24.728Z,53.07
2018-04-22T08:06:50.553Z,53.01
2018-04-22T08:09:16.404Z,52.99
2018-04-22T08:11:42.209Z,53.10
2018-04-22T08:14:08.058Z,53.08
2018-04-22T08:16:33.867Z,53.07
2018-04-22T08:18:59.704Z,53.15
2018-04-22T08:21:25.512Z,53.17
2018-04-22T08:23:51.316Z,53.23
2018-04-22T08:26:17.128Z,53.31
2018-04-22T08:28:42.933Z,53.36
2018-04-22T08:31:08.749Z,53.34
2018-04-22T08:33:34.572Z,53.33
2018-04-22T08:36:00.380Z,53.45
2018-04-22T08:38:26.201Z,53.40
2018-04-22T08:40:52.008Z,53.44
2018-04-22T08:43:17.816Z,53.60
2018-04-22T08:45:43.765Z,53.53
2018-04-22T08:48:09.574Z,53.55
2018-04-22T08:50:35.394Z,53.60
2018-04-22T08:53:01.238Z,53.59
2018-04-22T08:55:27.052Z,53.61
2018-04-22T08:57:52.900Z,53.64
2018-04-22T09:00:18.732Z,53.68
2018-04-22T09:02:44.531Z,53.65
2018-04-22T09:05:10.332Z,53.75
2018-04-22T09:07:36.137Z,53.77
2018-04-22T09:10:01.957Z,53.80
2018-04-22T09:12:27.917Z,53.71
2018-04-22T09:14:53.720Z,53.79
2018-04-22T09:17:19.524Z,53.80
2018-04-22T09:19:45.332Z,53.71
2018-04-22T09:22:11.134Z,53.79
2018-04-22T09:24:36.944Z,53.76
2018-04-22T09:27:02.748Z,53.82
2018-04-22T09:29:28.556Z,53.80
2018-04-22T09:31:54.365Z,53.83
2018-04-22T09:34:20.169Z,53.90
2018-04-22T09:36:45.976Z,53.88
2018-04-22T09:39:11.791Z,54.01
2018-04-22T09:41:37.601Z,54.01
2018-04-22T09:44:03.449Z,54.07
2018-04-22T09:46:29.255Z,54.04
2018-04-22T09:48:55.065Z,53.95
2018-04-22T09:51:20.877Z,54.01
2018-04-22T09:53:46.716Z,54.11
2018-04-22T09:56:12.549Z,54.03
2018-04-22T09:58:38.381Z,54.15
2018-04-22T10:01:04.232Z,54.18
2018-04-22T10:03:30.130Z,54.21
2018-04-22T10:06:00.848Z,54.17
2018-04-22T10:08:26.653Z,54.33
2018-04-22T10:10:52.624Z,54.31
2018-04-22T10:13:18.529Z,54.26
2018-04-22T10:15:44.421Z,54.26
2018-04-22T10:18:10.229Z,54.28
2018-04-22T10:20:36.056Z,54.24
2018-04-22T10:23:01.900Z,54.17
2018-04-22T10:25:27.713Z,54.24
2018-04-22T10:27:53.525Z,54.25
2018-04-22T10:30:19.336Z,54.30
2018-04-22T10:32:45.169Z,54.28
2018-04-22T10:35:10.977Z,54.26
2018-04-22T10:37:36.784Z,54.32
2018-04-22T10:40:02.623Z,54.40
2018-04-22T10:42:28.443Z,54.34
2018-04-22T10:44:54.282Z,54.24
2018-04-22T10:47:20.180Z,54.17
2018-04-22T10:49:45.992Z,54.42
2018-04-22T10:52:11.858Z,54.35
2018-04-22T10:54:37.664Z,54.43
2018-04-22T10:57:03.468Z,54.38
2018-04-22T10:59:29.277Z,54.23
2018-04-22T11:01:55.089Z,54.28
2018-04-22T11:04:20.922Z,54.30
2018-04-22T11:06:46.768Z,54.27
2018-04-22T11:09:12.692Z,54.14
2018-04-22T11:11:38.540Z,54.14
2018-04-22T11:14:04.343Z,54.25
2018-04-22T11:16:30.253Z,54.13
2018-04-22T11:18:56.062Z,54.13
2018-04-22T11:21:21.920Z,54.13
2018-04-22T11:23:47.733Z,54.16
2018-04-22T11:26:13.536Z,54.17
2018-04-22T11:28:39.421Z,54.24
2018-04-22T11:31:05.249Z,54.13
2018-04-22T11:33:31.664Z,54.12
2018-04-22T11:35:57.470Z,54.09
2018-04-22T11:38:23.291Z,54.13
2018-04-22T11:40:49.105Z,54.12
2018-04-22T11:43:14.909Z,54.05
2018-04-22T11:45:40.714Z,54.09
2018-04-22T11:48:06.520Z,54.18
2018-04-22T11:50:32.418Z,54.11
2018-04-22T11:52:58.231Z,54.09
2018-04-22T11:55:24.072Z,54.08
2018-04-22T11:57:49.880Z,54.07
2018-04-22T12:00:15.709Z,54.10
2018-04-22T12:02:41.518Z,54.10
2018-04-22T12:05:07.325Z,54.12
2018-04-22T12:07:33.137Z,54.20
2018-04-22T12:09:59.007Z,54.23
2018-04-22T12:12:24.844Z,54.26
2018-04-22T12:14:50.650Z,54.29
2018-04-22T12:17:16.465Z,54.36
2018-04-22T12:19:42.274Z,54.27
2018-04-22T12:22:08.080Z,54.28
2018-04-22T12:24:33.880Z,54.29
2018-04-22T12:26:59.738Z,54.39
2018-04-22T12:29:25.676Z,54.28
2018-04-22T12:31:51.514Z,54.39
2018-04-22T12:34:17.355Z,54.35
2018-04-22T12:36:43.160Z,54.40
2018-04-22T12:39:08.969Z,54.55
2018-04-22T12:41:34.799Z,54.43
2018-04-22T12:44:00.656Z,54.47
2018-04-22T12:46:26.469Z,54.46
2018-04-22T12:48:52.268Z,54.59
2018-04-22T12:51:18.077Z,54.47
2018-04-22T12:53:43.893Z,54.46
2018-04-22T12:56:09.704Z,54.48
2018-04-22T12:58:35.540Z,54.23
2018-04-22T13:01:01.429Z,54.46
2018-04-22T13:03:27.246Z,54.49
2018-04-22T13:05:53.056Z,54.43
2018-04-22T13:08:18.877Z,54.32
2018-04-22T13:10:44.688Z,54.36
2018-04-22T13:13:10.497Z,54.52
2018-04-22T13:15:36.305Z,54.45
2018-04-22T13:18:02.113Z,54.57
2018-04-22T13:20:27.929Z,54.55
2018-04-22T13:22:53.740Z,54.54
2018-04-22T13:25:19.554Z,54.59
2018-04-22T13:27:45.365Z,54.57
2018-04-22T13:30:11.176Z,54.50
2018-04-22T13:32:37.052Z,54.64
2018-04-22T13:35:02.856Z,54.59
2018-04-22T13:37:28.669Z,54.66
2018-04-22T13:39:54.517Z,54.61
2018-04-22T13:42:20.433Z,54.63
2018-04-22T13:44:46.300Z,54.67
2018-04-22T13:47:12.137Z,54.64
2018-04-22T13:49:38.010Z,54.77
2018-04-22T13:52:03.848Z,54.76
2018-04-22T13:54:29.649Z,54.77
2018-04-22T13:56:55.461Z,54.74
2018-04-22T13:59:21.292Z,54.79
2018-04-22T14:01:47.101Z,54.88
2018-04-22T14:04:12.905Z,54.92
2018-04-22T14:06:38.709Z,54.89
2018-04-22T14:09:04.529Z,54.83
2018-04-22T14:11:30.365Z,54.96
2018-04-22T14:13:56.176Z,54.93
2018-04-22T14:16:22.041Z,54.90
2018-04-22T14:18:47.848Z,54.94
2018-04-22T14:21:13.699Z,54.99
2018-04-22T14:23:39.504Z,55.00
2018-04-22T14:26:05.349Z,54.99
2018-04-22T14:28:31.160Z,54.96
2018-04-22T14:30:57.065Z,55.03
2018-04-22T14:33:22.868Z,54.99
2018-04-22T14:35:48.680Z,55.06
2018-04-22T14:38:14.484Z,55.05
2018-04-22T14:40:40.285Z,54.98
2018-04-22T14:43:06.093Z,55.01
2018-04-22T14:45:38.086Z,55.10
2018-04-22T14:48:04.872Z,55.14
2018-04-22T14:50:30.688Z,55.08
2018-04-22T14:52:56.539Z,55.09
2018-04-22T14:55:22.344Z,55.06
2018-04-22T14:57:48.174Z,55.06
2018-04-22T15:00:14.001Z,55.11
2018-04-22T15:02:39.815Z,55.09
2018-04-22T15:05:05.621Z,54.97
2018-04-22T15:07:31.429Z,54.90
2018-04-22T15:09:57.249Z,54.88
2018-04-22T15:12:23.053Z,54.87
2018-04-22T15:14:48.860Z,54.78
2018-04-22T15:17:14.709Z,54.81
2018-04-22T15:19:40.512Z,54.84
2018-04-22T15:22:06.321Z,54.79
2018-04-22T15:24:32.141Z,54.80
2018-04-22T15:26:57.944Z,54.75
2018-04-22T15:29:23.744Z,54.71
2018-04-22T15:31:49.549Z,54.77
2018-04-22T15:34:15.356Z,54.77
2018-04-22T15:36:41.172Z,54.77
2018-04-22T15:39:07.974Z,54.79
2018-04-22T15:41:33.780Z,54.82
2018-04-22T15:44:01.453Z,54.77
2018-04-22T15:46:27.527Z,54.85
2018-04-22T15:48:53.481Z,54.86
2018-04-22T15:51:19.312Z,54.88
2018-04-22T15:53:46.205Z,54.85
2018-04-22T15:56:12.164Z,54.90
2018-04-22T15:58:37.972Z,55.00
2018-04-22T16:01:03.781Z,55.00
2018-04-22T16:03:29.637Z,54.95
2018-04-22T16:05:55.441Z,55.04
2018-04-22T16:08:21.258Z,54.98
2018-04-22T16:10:47.089Z,55.03
2018-04-22T16:13:12.898Z,55.05
2018-04-22T16:15:38.767Z,55.01
2018-04-22T16:18:04.572Z,55.04
2018-04-22T16:20:30.407Z,54.96
2018-04-22T16:22:56.216Z,54.95
2018-04-22T16:25:22.028Z,55.01
2018-04-22T16:27:47.829Z,55.04
2018-04-22T16:30:13.643Z,55.01
2018-04-22T16:32:39.453Z,55.06
2018-04-22T16:35:05.252Z,55.07
2018-04-22T16:37:31.056Z,55.10
2018-04-22T16:39:56.859Z,55.07
2018-04-22T16:42:23.633Z,55.07
2018-04-22T16:44:49.466Z,55.15
2018-04-22T16:47:15.272Z,55.24
2018-04-22T16:49:41.079Z,55.17
2018-04-22T16:52:06.906Z,55.21
2018-04-22T16:54:32.711Z,55.28
2018-04-22T16:56:58.520Z,55.28
2018-04-22T16:59:24.328Z,55.27
2018-04-22T17:01:50.203Z,55.26
2018-04-22T17:04:16.034Z,55.27
2018-04-22T17:06:41.905Z,55.33
2018-04-22T17:09:07.713Z,55.35
2018-04-22T17:11:33.522Z,55.42
2018-04-22T17:13:59.330Z,55.39
2018-04-22T17:16:25.177Z,55.39
2018-04-22T17:18:50.977Z,55.47
2018-04-22T17:21:16.779Z,55.42
2018-04-22T17:23:42.588Z,55.44
2018-04-22T17:26:08.428Z,55.50
2018-04-22T17:28:34.276Z,55.54
2018-04-22T17:31:00.098Z,55.55
2018-04-22T17:33:25.904Z,55.44
2018-04-22T17:35:51.717Z,55.24
2018-04-22T17:38:17.529Z,54.92
2018-04-22T17:40:43.350Z,54.53
2018-04-22T17:43:09.200Z,54.06
2018-04-22T17:45:35.015Z,53.92
2018-04-22T17:48:00.849Z,53.73
2018-04-22T17:50:26.651Z,53.67
2018-04-22T17:52:52.499Z,53.38
2018-04-22T17:55:18.312Z,53.54
2018-04-22T17:57:44.124Z,53.71
2018-04-22T18:00:09.941Z,53.74
2018-04-22T18:02:35.750Z,53.83
2018-04-22T18:05:01.570Z,53.87
2018-04-22T18:07:27.497Z,53.90
2018-04-22T18:09:53.299Z,53.96
2018-04-22T18:12:19.113Z,53.96
2018-04-22T18:14:44.961Z,54.05
2018-04-22T18:17:10.780Z,54.09
2018-04-22T18:19:36.592Z,54.08
2018-04-22T18:22:02.395Z,54.13
2018-04-22T18:24:28.235Z,54.15
2018-04-22T18:26:54.074Z,54.16
2018-04-22T18:29:20.123Z,54.24
2018-04-22T18:31:45.972Z,54.25
2018-04-22T18:34:11.787Z,54.28
2018-04-22T18:36:38.664Z,54.37
2018-04-22T18:39:04.486Z,54.62
2018-04-22T18:41:31.307Z,54.74
2018-04-22T18:43:57.114Z,54.81
2018-04-22T18:46:22.950Z,54.96
2018-04-22T18:48:48.777Z,54.96
2018-04-22T18:51:14.642Z,55.03
2018-04-22T18:53:40.481Z,55.07
2018-04-22T18:56:06.317Z,55.12
2018-04-22T18:58:32.119Z,55.05
2018-04-22T19:00:57.957Z,55.13
2018-04-22T19:03:23.793Z,55.18
2018-04-22T19:05:49.641Z,55.16
2018-04-22T19:08:15.452Z,55.30
2018-04-22T19:10:41.270Z,55.23
2018-04-22T19:13:07.084Z,55.29
2018-04-22T19:15:32.928Z,55.34
2018-04-22T19:17:58.742Z,55.41
2018-04-22T19:20:24.552Z,55.38
2018-04-22T19:22:50.471Z,55.36
2018-04-22T19:25:16.295Z,55.42
2018-04-22T19:27:42.109Z,55.43
2018-04-22T19:30:07.916Z,55.46
2018-04-22T19:32:33.861Z,55.45
2018-04-22T19:34:59.665Z,55.41
2018-04-22T19:37:25.606Z,55.46
2018-04-22T19:39:51.412Z,55.36
2018-04-22T19:42:17.220Z,55.39
2018-04-22T19:44:43.031Z,55.40
2018-04-22T19:47:08.872Z,55.40
2018-04-22T19:49:34.701Z,55.32
2018-04-22T19:52:00.511Z,55.56
2018-04-22T19:54:26.361Z,55.32
2018-04-22T19:56:52.175Z,55.35
2018-04-22T19:59:18.025Z,55.38
2018-04-22T20:01:43.840Z,55.49
2018-04-22T20:04:09.648Z,55.45
2018-04-22T20:06:35.454Z,55.54
2018-04-22T20:09:01.267Z,55.47
2018-04-22T20:11:27.075Z,55.40
2018-04-22T20:13:52.879Z,55.42
2018-04-22T20:16:18.714Z,55.42
2018-04-22T20:18:44.517Z,55.37
2018-04-22T20:21:10.426Z,55.29
2018-04-22T20:23:36.192Z,55.41
2018-04-22T20:26:02.001Z,55.45
2018-04-22T20:28:27.809Z,55.43
2018-04-22T20:30:53.700Z,55.48
2018-04-22T20:33:19.625Z,55.48
2018-04-22T20:35:45.590Z,55.53
2018-04-22T20:38:11.396Z,55.57
2018-04-22T20:40:37.199Z,55.72
2018-04-22T20:43:03.005Z,55.77
2018-04-22T20:45:28.807Z,55.78
2018-04-22T20:47:54.618Z,55.82
2018-04-22T20:50:20.600Z,55.78
2018-04-22T20:52:46.413Z,55.72
2018-04-22T20:55:12.216Z,55.60
2018-04-22T20:57:38.057Z,55.64
2018-04-22T21:00:03.990Z,55.64
2018-04-22T21:02:29.817Z,55.57
2018-04-22T21:04:55.732Z,55.61
2018-04-22T21:07:21.546Z,55.58
2018-04-22T21:09:47.534Z,55.62
2018-04-22T21:12:13.336Z,55.62
2018-04-22T21:14:39.177Z,55.57
2018-04-22T21:17:04.989Z,55.58
2018-04-22T21:19:30.797Z,55.63
2018-04-22T21:21:56.676Z,55.66
2018-04-22T21:24:22.556Z,55.69
2018-04-22T21:26:48.361Z,55.65
2018-04-22T21:29:14.434Z,55.75
2018-04-22T21:31:40.356Z,55.74
2018-04-22T21:34:06.169Z,55.89
2018-04-22T21:36:31.989Z,55.96
2018-04-22T21:38:57.798Z,55.71
2018-04-22T21:41:23.609Z,55.63
2018-04-22T21:43:49.449Z,55.54
2018-04-22T21:46:15.255Z,55.54
2018-04-22T21:48:41.089Z,55.80
2018-04-22T21:51:07.125Z,55.55
2018-04-22T21:53:32.989Z,55.62
2018-04-22T21:55:58.858Z,55.65
2018-04-22T21:58:24.678Z,55.58
2018-04-22T22:00:50.490Z,55.59
2018-04-22T22:03:16.292Z,55.59
2018-04-22T22:05:42.277Z,55.56
2018-04-22T22:08:08.080Z,55.59
2018-04-22T22:10:33.917Z,55.62
2018-04-22T22:12:59.756Z,55.69
2018-04-22T22:15:25.579Z,55.59
2018-04-22T22:17:52.354Z,55.45
2018-04-22T22:20:18.156Z,55.28
2018-04-22T22:22:43.956Z,54.96
2018-04-22T22:25:09.757Z,54.74
2018-04-22T22:27:35.564Z,54.56
2018-04-22T22:30:01.370Z,54.36
2018-04-22T22:32:27.287Z,54.34
2018-04-22T22:34:53.084Z,54.34
2018-04-22T22:37:18.929Z,54.53
2018-04-22T22:39:44.741Z,54.47
2018-04-22T22:42:10.550Z,54.57
2018-04-22T22:44:36.436Z,54.64
2018-04-22T22:47:02.276Z,54.67
2018-04-22T22:49:28.168Z,54.71
2018-04-22T22:51:53.977Z,54.73
2018-04-22T22:54:19.866Z,54.76
2018-04-22T22:56:45.693Z,54.78
2018-04-22T22:59:11.500Z,54.85
2018-04-22T23:01:37.337Z,54.85
2018-04-22T23:04:03.141Z,54.96
2018-04-22T23:06:28.950Z,54.86
2018-04-22T23:08:54.752Z,54.97
2018-04-22T23:11:20.556Z,55.00
2018-04-22T23:13:46.361Z,55.03
2018-04-22T23:16:12.188Z,54.99
2018-04-22T23:18:37.992Z,55.06
2018-04-22T23:21:03.792Z,54.99
2018-04-22T23:23:29.598Z,54.97
2018-04-22T23:25:55.404Z,54.94
2018-04-22T23:28:21.236Z,54.87
2018-04-22T23:30:47.058Z,55.00
2018-04-22T23:33:12.896Z,55.11
2018-04-22T23:35:38.701Z,54.99
2018-04-22T23:38:04.505Z,54.93
2018-04-22T23:40:30.300Z,54.92
2018-04-22T23:42:57.294Z,54.92
2018-04-22T23:45:23.103Z,55.05
2018-04-22T23:47:48.937Z,55.02
2018-04-22T23:50:14.743Z,54.91
2018-04-22T23:52:40.589Z,54.98
2018-04-22T23:55:06.392Z,54.97
2018-04-22T23:57:32.288Z,54.99
2018-04-22T23:59:58.090Z,55.06
